createdAt,value
2023-02-12T00:00:19.998Z,25.70
2023-02-12T00:02:56.248Z,24.87
2023-02-12T00:05:32.187Z,19.87
2023-02-12T00:08:03.509Z,24.13
2023-02-12T00:10:41.195Z,22.17
2023-02-12T00:13:17.503Z,22.90
2023-02-12T00:15:53.103Z,23.73
2023-02-12T00:18:26.272Z,25.23
2023-02-12T00:20:54.889Z,23.80
2023-02-12T00:23:23.580Z,24.73
2023-02-12T00:25:51.707Z,19.73
2023-02-12T00:28:20.353Z,22.67
2023-02-12T00:30:51.024Z,24.33
2023-02-12T00:33:31.790Z,22.63
2023-02-12T00:36:10.462Z,25.67
2023-02-12T00:38:38.693Z,22.47
2023-02-12T00:41:19.263Z,21.37
2023-02-12T00:43:54.494Z,24.07
2023-02-12T00:46:25.201Z,27.77
2023-02-12T00:48:52.946Z,23.53
2023-02-12T00:51:20.742Z,29.40
2023-02-12T00:53:49.572Z,22.90
2023-02-12T00:56:17.351Z,25.63
2023-02-12T00:58:45.129Z,23.50
2023-02-12T01:01:12.881Z,24.73
2023-02-12T01:03:41.897Z,25.67
2023-02-12T01:06:09.649Z,27.23
2023-02-12T01:08:37.339Z,25.77
2023-02-12T01:11:06.216Z,23.63
2023-02-12T01:13:34.811Z,23.90
2023-02-12T01:16:04.464Z,19.97
2023-02-12T01:18:32.188Z,21.63
2023-02-12T01:21:01.438Z,27.47
2023-02-12T01:23:29.269Z,22.80
2023-02-12T01:25:57.216Z,24.37
2023-02-12T01:28:25.024Z,26.23
2023-02-12T01:30:52.822Z,23.93
2023-02-12T01:33:21.057Z,28.40
2023-02-12T01:35:48.659Z,24.80
2023-02-12T01:38:17.769Z,21.87
2023-02-12T01:40:45.496Z,27.37
2023-02-12T01:43:13.521Z,27.20
2023-02-12T01:45:48.074Z,26.00
2023-02-12T01:48:17.286Z,24.70
2023-02-12T01:50:46.618Z,22.87
2023-02-12T01:53:20.000Z,27.13
2023-02-12T01:55:56.541Z,25.03
2023-02-12T01:58:25.713Z,25.90
2023-02-12T02:00:53.510Z,25.70
2023-02-12T02:03:21.356Z,28.20
2023-02-12T02:05:55.684Z,28.03
2023-02-12T02:08:23.736Z,26.80
2023-02-12T02:10:52.848Z,25.17
2023-02-12T02:13:38.006Z,25.97
2023-02-12T02:16:12.778Z,27.27
2023-02-12T02:18:45.432Z,29.43
2023-02-12T02:21:25.337Z,27.27
2023-02-12T02:24:10.666Z,24.53
2023-02-12T02:27:07.161Z,20.93
2023-02-12T02:30:03.217Z,22.73
2023-02-12T02:32:33.714Z,21.07
2023-02-12T02:35:04.504Z,21.97
2023-02-12T02:37:34.720Z,24.40
2023-02-12T02:40:08.711Z,23.80
2023-02-12T02:42:39.375Z,23.67
2023-02-12T02:45:10.725Z,24.60
2023-02-12T02:47:42.865Z,27.33
2023-02-12T02:50:13.597Z,22.63
2023-02-12T02:52:44.758Z,24.37
2023-02-12T02:55:14.311Z,26.30
2023-02-12T02:57:46.556Z,25.17
2023-02-12T03:00:16.438Z,24.47
2023-02-12T03:02:50.078Z,23.67
2023-02-12T03:05:20.781Z,33.17
2023-02-12T03:07:52.286Z,27.93
2023-02-12T03:10:21.936Z,25.50
2023-02-12T03:12:53.521Z,25.47
2023-02-12T03:15:24.506Z,25.17
2023-02-12T03:17:53.496Z,24.53
2023-02-12T03:20:25.179Z,26.73
2023-02-12T03:22:57.105Z,27.63
2023-02-12T03:25:27.897Z,23.10
2023-02-12T03:28:00.700Z,24.47
2023-02-12T03:30:39.034Z,25.67
2023-02-12T03:33:16.586Z,26.17
2023-02-12T03:35:52.320Z,25.10
2023-02-12T03:38:28.658Z,26.30
2023-02-12T03:40:59.661Z,26.90
2023-02-12T03:43:30.662Z,26.93
2023-02-12T03:46:01.241Z,27.57
2023-02-12T03:48:32.227Z,30.00
2023-02-12T03:51:03.038Z,30.23
2023-02-12T03:53:31.452Z,28.77
2023-02-12T03:56:03.665Z,27.30
2023-02-12T03:58:34.005Z,29.53
2023-02-12T04:01:02.236Z,27.53
2023-02-12T04:03:32.280Z,26.87
2023-02-12T04:05:59.877Z,28.47
2023-02-12T04:08:28.575Z,27.93
2023-02-12T04:11:05.722Z,28.17
2023-02-12T04:13:39.728Z,30.50
2023-02-12T04:16:16.971Z,30.30
2023-02-12T04:18:49.453Z,30.70
2023-02-12T04:21:23.613Z,31.27
2023-02-12T04:23:59.674Z,30.20
2023-02-12T04:26:33.584Z,30.13
2023-02-12T04:29:09.405Z,32.17
2023-02-12T04:31:40.229Z,31.30
2023-02-12T04:34:14.020Z,28.23
2023-02-12T04:36:46.496Z,33.03
2023-02-12T04:39:19.020Z,31.10
2023-02-12T04:41:46.623Z,30.10
2023-02-12T04:44:16.105Z,31.50
2023-02-12T04:46:43.747Z,32.17
2023-02-12T04:49:16.490Z,32.00
2023-02-12T04:51:44.600Z,31.83
2023-02-12T04:54:12.208Z,33.53
2023-02-12T04:56:39.829Z,32.27
2023-02-12T04:59:07.618Z,32.40
2023-02-12T05:01:36.138Z,30.43
2023-02-12T05:04:04.266Z,31.53
2023-02-12T05:06:36.436Z,30.93
2023-02-12T05:09:05.091Z,31.43
2023-02-12T05:11:32.829Z,33.53
2023-02-12T05:14:00.782Z,29.73
2023-02-12T05:16:28.500Z,31.37
2023-02-12T05:18:56.114Z,32.97
2023-02-12T05:21:23.879Z,33.10
2023-02-12T05:23:52.902Z,28.00
2023-02-12T05:26:21.983Z,32.30
2023-02-12T05:28:49.633Z,29.13
2023-02-12T05:31:21.150Z,31.50
2023-02-12T05:33:49.653Z,31.30
2023-02-12T05:36:20.010Z,32.37
2023-02-12T05:38:47.804Z,30.30
2023-02-12T05:41:18.472Z,34.10
2023-02-12T05:43:49.478Z,33.63
2023-02-12T05:46:18.483Z,30.30
2023-02-12T05:48:46.730Z,29.00
2023-02-12T05:51:16.335Z,32.90
2023-02-12T05:53:43.929Z,32.90
2023-02-12T05:56:13.989Z,35.93
2023-02-12T05:58:45.024Z,35.33
2023-02-12T06:01:14.187Z,34.83
2023-02-12T06:03:41.908Z,31.33
2023-02-12T06:06:09.713Z,31.70
2023-02-12T06:08:37.913Z,36.27
2023-02-12T06:11:07.329Z,33.37
2023-02-12T06:13:35.394Z,32.80
2023-02-12T06:16:04.695Z,32.60
2023-02-12T06:18:32.721Z,32.47
2023-02-12T06:21:00.381Z,36.07
2023-02-12T06:23:27.977Z,30.30
2023-02-12T06:25:58.194Z,36.07
2023-02-12T06:28:25.968Z,32.83
2023-02-12T06:30:53.787Z,34.27
2023-02-12T06:33:23.018Z,33.80
2023-02-12T06:35:50.699Z,38.60
2023-02-12T06:38:18.283Z,34.27
2023-02-12T06:40:45.861Z,36.77
2023-02-12T06:43:13.604Z,30.70
2023-02-12T06:45:41.247Z,36.33
2023-02-12T06:48:08.992Z,34.90
2023-02-12T06:50:38.049Z,36.53
2023-02-12T06:53:05.702Z,33.97
2023-02-12T06:55:33.218Z,34.57
2023-02-12T06:58:00.832Z,34.30
2023-02-12T07:00:28.735Z,36.87
2023-02-12T07:02:56.934Z,36.53
2023-02-12T07:05:25.306Z,36.03
2023-02-12T07:07:54.263Z,39.00
2023-02-12T07:10:21.821Z,38.50
2023-02-12T07:12:49.510Z,36.53
2023-02-12T07:15:17.160Z,37.37
2023-02-12T07:17:44.722Z,38.73
2023-02-12T07:20:13.142Z,37.93
2023-02-12T07:22:40.750Z,37.87
2023-02-12T07:25:09.758Z,36.97
2023-02-12T07:27:38.226Z,32.87
2023-02-12T07:30:06.708Z,41.50
2023-02-12T07:32:34.711Z,33.03
2023-02-12T07:35:02.419Z,41.57
2023-02-12T07:37:30.055Z,37.43
2023-02-12T07:39:57.858Z,35.60
2023-02-12T07:42:26.794Z,37.53
2023-02-12T07:44:54.371Z,41.47
2023-02-12T07:47:24.987Z,42.80
2023-02-12T07:49:52.722Z,42.47
2023-02-12T07:52:20.285Z,39.57
2023-02-12T07:54:48.848Z,40.50
2023-02-12T07:57:16.448Z,37.70
2023-02-12T07:59:46.034Z,39.13
2023-02-12T08:02:13.686Z,39.00
2023-02-12T08:04:41.369Z,42.23
2023-02-12T08:07:09.011Z,35.67
2023-02-12T08:09:36.674Z,39.00
2023-02-12T08:12:04.313Z,45.17
2023-02-12T08:14:32.094Z,45.30
2023-02-12T08:17:01.016Z,45.40
2023-02-12T08:19:28.719Z,44.37
2023-02-12T08:21:57.423Z,43.67
2023-02-12T08:24:25.441Z,53.17
2023-02-12T08:26:53.240Z,44.80
2023-02-12T08:29:22.703Z,44.23
2023-02-12T08:31:51.494Z,44.10
2023-02-12T08:34:22.427Z,47.77
2023-02-12T08:36:51.144Z,46.53
2023-02-12T08:39:19.431Z,46.37
2023-02-12T08:41:47.613Z,52.03
2023-02-12T08:44:16.100Z,52.43
2023-02-12T08:46:46.908Z,53.93
2023-02-12T08:49:15.832Z,49.90
2023-02-12T08:51:46.699Z,47.50
2023-02-12T08:54:15.468Z,49.00
2023-02-12T08:56:45.141Z,48.90
2023-02-12T08:59:13.806Z,45.77
2023-02-12T09:01:42.126Z,46.63
2023-02-12T09:04:11.071Z,48.97
2023-02-12T09:06:38.752Z,45.10
2023-02-12T09:09:08.189Z,44.33
2023-02-12T09:11:37.648Z,44.83
2023-02-12T09:14:07.464Z,50.07
2023-02-12T09:16:37.343Z,46.97
2023-02-12T09:19:05.372Z,44.80
2023-02-12T09:21:33.182Z,48.40
2023-02-12T09:24:02.132Z,47.70
2023-02-12T09:26:31.421Z,46.03
2023-02-12T09:28:59.578Z,45.70
2023-02-12T09:31:29.249Z,51.10
2023-02-12T09:33:59.794Z,106.70
2023-02-12T09:36:27.688Z,49.73
2023-02-12T09:38:55.419Z,50.50
2023-02-12T09:41:59.372Z,48.07
2023-02-12T09:44:33.741Z,51.30
2023-02-12T09:47:04.562Z,46.30
2023-02-12T09:49:46.661Z,48.57
2023-02-12T09:52:16.708Z,45.53
2023-02-12T09:54:45.288Z,50.63
2023-02-12T09:57:18.779Z,55.67
2023-02-12T09:59:49.673Z,49.93
2023-02-12T10:02:19.091Z,51.17
2023-02-12T10:05:00.080Z,52.37
2023-02-12T10:07:38.236Z,55.33
2023-02-12T10:10:24.659Z,50.73
2023-02-12T10:12:56.291Z,55.87
2023-02-12T10:15:39.174Z,57.87
2023-02-12T10:18:19.120Z,56.47
2023-02-12T10:20:54.140Z,52.93
2023-02-12T10:23:46.995Z,55.97
2023-02-12T10:26:20.056Z,60.57
2023-02-12T10:28:47.873Z,59.63
2023-02-12T10:31:31.458Z,61.00
2023-02-12T10:33:59.554Z,56.87
2023-02-12T10:36:39.887Z,55.03
2023-02-12T10:39:14.426Z,52.97
2023-02-12T10:41:45.432Z,48.20
2023-02-12T10:44:13.411Z,53.53
2023-02-12T10:46:42.427Z,68.37
2023-02-12T10:49:12.076Z,57.03
2023-02-12T10:51:48.718Z,50.57
2023-02-12T10:54:37.190Z,55.00
2023-02-12T10:57:11.883Z,54.17
2023-02-12T10:59:39.861Z,49.17
2023-02-12T11:02:20.513Z,53.33
2023-02-12T11:04:48.384Z,51.77
2023-02-12T11:07:16.407Z,50.23
2023-02-12T11:09:46.319Z,58.80
2023-02-12T11:12:21.382Z,53.00
2023-02-12T11:14:53.889Z,59.90
2023-02-12T11:17:27.036Z,52.83
2023-02-12T11:20:10.181Z,46.20
2023-02-12T11:22:38.106Z,47.57
2023-02-12T11:25:15.848Z,51.43
2023-02-12T11:27:43.526Z,46.07
2023-02-12T11:30:18.448Z,47.63
2023-02-12T11:32:49.281Z,50.90
2023-02-12T11:35:24.979Z,45.73
2023-02-12T11:37:55.420Z,52.40
2023-02-12T11:40:24.546Z,53.37
2023-02-12T11:42:54.896Z,47.40
2023-02-12T11:45:25.711Z,48.87
2023-02-12T11:47:54.797Z,46.07
2023-02-12T11:50:27.377Z,45.80
2023-02-12T11:52:58.835Z,44.93
2023-02-12T11:55:31.578Z,51.37
2023-02-12T11:58:04.482Z,41.20
2023-02-12T12:00:36.482Z,44.63
2023-02-12T12:03:12.242Z,47.10
2023-02-12T12:05:42.021Z,50.70
2023-02-12T12:08:16.752Z,42.93
2023-02-12T12:10:48.889Z,39.37
2023-02-12T12:13:25.077Z,43.93
2023-02-12T12:16:25.339Z,44.23
2023-02-12T12:19:15.383Z,38.87
2023-02-12T12:21:47.066Z,41.83
2023-02-12T12:24:16.869Z,38.93
2023-02-12T12:26:49.012Z,43.47
2023-02-12T12:29:20.850Z,38.63
2023-02-12T12:31:50.261Z,38.70
2023-02-12T12:34:21.053Z,37.03
2023-02-12T12:37:20.280Z,38.53
2023-02-12T12:39:58.949Z,36.60
2023-02-12T12:42:51.476Z,43.13
2023-02-12T12:45:29.721Z,38.60
2023-02-12T12:48:06.147Z,39.57
2023-02-12T12:50:49.528Z,36.03
2023-02-12T12:53:31.741Z,38.90
2023-02-12T12:56:22.888Z,34.97
2023-02-12T12:59:02.419Z,34.30
2023-02-12T13:02:13.977Z,38.40
2023-02-12T13:04:53.602Z,34.97
2023-02-12T13:07:37.680Z,35.73
2023-02-12T13:10:16.882Z,34.13
2023-02-12T13:12:55.992Z,37.50
2023-02-12T13:15:32.989Z,34.10
2023-02-12T13:18:07.769Z,31.50
2023-02-12T13:20:44.649Z,30.50
2023-02-12T13:23:17.183Z,32.43
2023-02-12T13:25:50.719Z,34.77
2023-02-12T13:28:24.993Z,32.27
2023-02-12T13:30:55.714Z,32.43
2023-02-12T13:33:26.077Z,31.30
2023-02-12T13:35:56.311Z,31.23
2023-02-12T13:38:34.719Z,32.13
2023-02-12T13:41:06.399Z,31.90
2023-02-12T13:44:01.871Z,28.87
2023-02-12T13:46:35.136Z,27.90
2023-02-12T13:49:15.532Z,27.13
2023-02-12T13:51:46.255Z,26.83
2023-02-12T13:54:46.509Z,27.13
2023-02-12T13:57:16.799Z,21.27
2023-02-12T13:59:53.893Z,23.27
2023-02-12T14:02:46.337Z,23.97
2023-02-12T14:07:51.555Z,29.50
2023-02-12T14:10:27.119Z,27.07
2023-02-12T14:12:57.070Z,24.03
2023-02-12T14:15:32.317Z,22.87
2023-02-12T14:18:08.163Z,22.97
2023-02-12T14:20:38.044Z,24.93
2023-02-12T14:23:25.028Z,25.57
2023-02-12T14:26:02.457Z,27.20
2023-02-12T14:28:42.864Z,25.77
2023-02-12T14:31:31.807Z,25.37
2023-02-12T14:34:49.144Z,21.90
2023-02-12T14:37:38.180Z,16.90
2023-02-12T14:40:40.527Z,17.40
2023-02-12T14:43:29.509Z,19.53
2023-02-12T14:45:59.016Z,20.30
2023-02-12T14:48:52.153Z,23.43
2023-02-12T14:51:23.285Z,24.07
2023-02-12T14:53:52.220Z,22.33
2023-02-12T14:56:21.778Z,23.63
2023-02-12T14:58:52.077Z,23.33
2023-02-12T15:01:19.909Z,23.83
2023-02-12T15:03:50.591Z,23.63
2023-02-12T15:06:19.874Z,26.50
2023-02-12T15:08:53.206Z,25.90
2023-02-12T15:11:24.869Z,26.57
2023-02-12T15:13:57.049Z,26.70
2023-02-12T15:16:39.806Z,28.17
2023-02-12T15:19:18.596Z,26.47
2023-02-12T15:21:47.066Z,28.83
2023-02-12T15:24:15.614Z,28.17
2023-02-12T15:26:45.388Z,23.37
2023-02-12T15:29:22.552Z,25.30
2023-02-12T15:31:55.540Z,26.67
2023-02-12T15:34:25.745Z,29.93
2023-02-12T15:36:53.544Z,31.20
2023-02-12T15:39:22.919Z,27.27
2023-02-12T15:41:50.908Z,26.17
2023-02-12T15:44:28.703Z,24.47
2023-02-12T15:47:11.884Z,29.47
2023-02-12T15:49:41.289Z,27.63
2023-02-12T15:52:10.664Z,27.00
2023-02-12T15:54:39.399Z,32.90
2023-02-12T15:57:15.331Z,29.77
2023-02-12T15:59:44.455Z,30.67
2023-02-12T16:02:20.674Z,29.10
2023-02-12T16:04:48.810Z,34.37
2023-02-12T16:07:17.025Z,32.37
2023-02-12T16:09:45.391Z,28.43
2023-02-12T16:12:14.608Z,28.07
2023-02-12T16:14:44.747Z,27.90
2023-02-12T16:17:22.391Z,30.77
2023-02-12T16:19:57.966Z,31.63
2023-02-12T16:22:29.196Z,31.23
2023-02-12T16:24:57.445Z,28.27
2023-02-12T16:27:26.692Z,26.07
2023-02-12T16:29:57.897Z,24.20
2023-02-12T16:32:31.756Z,26.10
2023-02-12T16:35:01.040Z,26.57
2023-02-12T16:37:47.862Z,25.60
2023-02-12T16:40:27.578Z,22.03
2023-02-12T16:43:01.833Z,23.20
2023-02-12T16:45:42.541Z,21.10
2023-02-12T16:48:16.197Z,21.43
2023-02-12T16:50:50.004Z,23.33
2023-02-12T16:53:47.358Z,21.50
2023-02-12T16:56:18.686Z,22.13
2023-02-12T16:58:48.420Z,23.77
2023-02-12T17:01:20.660Z,22.40
2023-02-12T17:03:50.500Z,25.70
2023-02-12T17:06:20.094Z,19.33
2023-02-12T17:08:47.810Z,19.40
2023-02-12T17:11:17.748Z,20.77
2023-02-12T17:13:46.221Z,19.27
2023-02-12T17:16:18.881Z,19.53
2023-02-12T17:18:57.580Z,20.27
2023-02-12T17:21:27.054Z,17.67
2023-02-12T17:23:54.984Z,18.17
2023-02-12T17:26:23.139Z,18.77
2023-02-12T17:28:50.834Z,19.07
2023-02-12T17:31:19.517Z,21.43
2023-02-12T17:33:47.622Z,23.27
2023-02-12T17:36:16.848Z,18.90
2023-02-12T17:38:44.617Z,20.90
2023-02-12T17:41:12.653Z,25.53
2023-02-12T17:43:40.299Z,20.17
2023-02-12T17:46:10.319Z,17.97
2023-02-12T17:48:38.091Z,22.53
2023-02-12T17:51:06.122Z,20.90
2023-02-12T17:53:35.135Z,20.30
2023-02-12T17:56:02.782Z,22.47
2023-02-12T17:58:31.029Z,19.30
2023-02-12T18:00:59.218Z,21.90
2023-02-12T18:03:27.065Z,20.07
2023-02-12T18:05:54.762Z,19.77
2023-02-12T18:08:22.415Z,22.97
2023-02-12T18:10:51.339Z,25.80
2023-02-12T18:13:18.988Z,23.33
2023-02-12T18:15:46.688Z,21.83
2023-02-12T18:18:16.580Z,23.13
2023-02-12T18:20:44.587Z,19.87
2023-02-12T18:23:12.511Z,21.83
2023-02-12T18:25:42.315Z,21.07
2023-02-12T18:28:12.751Z,24.77
2023-02-12T18:30:42.745Z,24.10
2023-02-12T18:33:11.010Z,26.93
2023-02-12T18:35:41.615Z,24.10
2023-02-12T18:38:09.240Z,21.67
2023-02-12T18:40:40.693Z,26.53
2023-02-12T18:43:08.278Z,24.47
2023-02-12T18:45:39.938Z,25.00
2023-02-12T18:48:09.212Z,22.37
2023-02-12T18:50:36.864Z,22.20
2023-02-12T18:53:04.479Z,25.70
2023-02-12T18:58:10.121Z,23.63
2023-02-12T19:00:40.130Z,23.30
2023-02-12T19:03:07.970Z,22.47
2023-02-12T19:05:35.647Z,21.67
2023-02-12T19:08:03.458Z,26.43
2023-02-12T19:10:31.126Z,23.97
2023-02-12T19:12:58.965Z,24.13
2023-02-12T19:15:26.550Z,22.67
2023-02-12T19:17:55.613Z,24.20
2023-02-12T19:20:23.239Z,22.00
2023-02-12T19:22:50.900Z,21.60
2023-02-12T19:25:18.567Z,20.60
2023-02-12T19:27:46.133Z,22.33
2023-02-12T19:30:14.497Z,21.83
2023-02-12T19:32:42.117Z,22.60
2023-02-12T19:35:11.110Z,22.13
2023-02-12T19:37:38.805Z,22.13
2023-02-12T19:40:07.628Z,21.60
2023-02-12T19:42:35.930Z,22.40
2023-02-12T19:45:03.568Z,22.60
2023-02-12T19:47:31.249Z,23.10
2023-02-12T19:49:58.839Z,24.13
2023-02-12T19:52:28.124Z,26.83
2023-02-12T19:54:55.722Z,24.13
2023-02-12T19:57:23.402Z,27.37
2023-02-12T19:59:51.051Z,24.37
2023-02-12T20:02:18.909Z,23.87
2023-02-12T20:04:47.406Z,26.60
2023-02-12T20:07:15.091Z,25.50
2023-02-12T20:09:44.240Z,26.57
2023-02-12T20:12:11.866Z,27.23
2023-02-12T20:14:39.492Z,28.73
2023-02-12T20:17:07.145Z,27.93
2023-02-12T20:19:34.808Z,29.27
2023-02-12T20:22:03.321Z,29.83
2023-02-12T20:24:32.568Z,29.83
2023-02-12T20:27:02.875Z,29.00
2023-02-12T20:29:30.695Z,31.33
2023-02-12T20:31:58.569Z,32.60
2023-02-12T20:34:26.330Z,49.47
2023-02-12T20:36:54.613Z,32.83
2023-02-12T20:39:23.132Z,30.57
2023-02-12T20:41:51.232Z,31.00
2023-02-12T20:44:21.860Z,28.47
2023-02-12T20:46:54.405Z,28.80
2023-02-12T20:49:24.490Z,28.73
2023-02-12T20:51:52.527Z,27.57
2023-02-12T20:54:20.201Z,34.00
2023-02-12T20:56:49.661Z,27.47
2023-02-12T20:59:18.306Z,28.13
2023-02-12T21:01:47.929Z,28.37
2023-02-12T21:04:17.668Z,30.47
2023-02-12T21:06:47.407Z,28.17
2023-02-12T21:09:15.414Z,28.73
2023-02-12T21:11:45.570Z,25.60
2023-02-12T21:14:23.519Z,28.57
2023-02-12T21:16:53.829Z,28.40
2023-02-12T21:19:22.486Z,32.03
2023-02-12T21:21:50.360Z,29.60
2023-02-12T21:24:21.512Z,31.07
2023-02-12T21:26:49.658Z,29.73
2023-02-12T21:29:17.818Z,28.37
2023-02-12T21:31:47.345Z,30.23
2023-02-12T21:34:17.704Z,32.97
2023-02-12T21:36:46.920Z,33.70
2023-02-12T21:39:24.329Z,29.17
2023-02-12T21:41:53.885Z,31.40
2023-02-12T21:44:23.252Z,31.43
2023-02-12T21:46:53.690Z,32.67
2023-02-12T21:49:28.009Z,33.13
2023-02-12T21:51:59.386Z,34.17
2023-02-12T21:54:27.816Z,30.03
2023-02-12T21:56:56.619Z,29.40
2023-02-12T21:59:25.010Z,30.27
2023-02-12T22:01:55.297Z,29.93
2023-02-12T22:04:24.484Z,33.27
2023-02-12T22:06:53.883Z,29.17
2023-02-12T22:09:23.613Z,27.43
2023-02-12T22:11:53.656Z,30.93
2023-02-12T22:14:23.228Z,27.60
2023-02-12T22:16:51.126Z,29.07
2023-02-12T22:19:21.071Z,30.30
2023-02-12T22:21:52.488Z,27.47
2023-02-12T22:24:21.068Z,27.90
2023-02-12T22:26:49.750Z,23.80
2023-02-12T22:29:18.232Z,28.03
2023-02-12T22:31:47.929Z,25.67
2023-02-12T22:34:17.950Z,26.53
2023-02-12T22:36:46.118Z,25.60
2023-02-12T22:39:19.636Z,24.67
2023-02-12T22:41:47.762Z,23.97
2023-02-12T22:44:21.399Z,23.10
2023-02-12T22:46:50.083Z,28.27
2023-02-12T22:49:18.066Z,25.23
2023-02-12T22:51:45.809Z,25.90
2023-02-12T22:54:16.167Z,24.03
2023-02-12T22:56:44.512Z,23.57
2023-02-12T22:59:14.988Z,23.13
2023-02-12T23:01:43.306Z,21.93
2023-02-12T23:04:15.566Z,24.03
2023-02-12T23:06:43.983Z,20.50
2023-02-12T23:09:14.395Z,22.53
2023-02-12T23:11:43.586Z,23.87
2023-02-12T23:14:11.400Z,21.73
2023-02-12T23:16:42.840Z,23.50
2023-02-12T23:19:11.106Z,24.37
2023-02-12T23:21:38.854Z,23.87
2023-02-12T23:24:07.099Z,23.67
2023-02-12T23:26:36.639Z,20.47
2023-02-12T23:29:05.691Z,21.40
2023-02-12T23:31:33.489Z,21.17
2023-02-12T23:34:01.479Z,22.07
2023-02-12T23:36:29.293Z,21.97
2023-02-12T23:38:57.012Z,22.10
2023-02-12T23:41:24.749Z,20.80
2023-02-12T23:43:52.406Z,20.17
2023-02-12T23:46:24.995Z,20.33
2023-02-12T23:48:52.693Z,19.90
2023-02-12T23:51:20.434Z,20.30
2023-02-12T23:53:49.057Z,19.57
2023-02-12T23:56:17.383Z,20.10
2023-02-12T23:58:45.138Z,18.90
